createdAt,value
2022-09-12T00:00:27.454Z,101379.50
2022-09-12T00:01:30.005Z,101378.03
2022-09-12T00:02:33.172Z,101386.06
2022-09-12T00:03:35.662Z,101379.06
2022-09-12T00:04:38.645Z,101364.16
2022-09-12T00:05:44.388Z,101377.59
2022-09-12T00:06:47.288Z,101374.13
2022-09-12T00:07:50.640Z,101400.09
2022-09-12T00:08:56.818Z,101378.84
2022-09-12T00:09:58.800Z,101378.00
2022-09-12T00:11:07.228Z,101381.72
2022-09-12T00:12:10.343Z,101380.25
2022-09-12T00:13:12.257Z,101369.53
2022-09-12T00:14:18.256Z,101369.53
2022-09-12T00:15:20.360Z,101366.22
2022-09-12T00:16:25.487Z,101368.09
2022-09-12T00:17:27.530Z,101364.56
2022-09-12T00:18:30.512Z,101369.09
2022-09-12T00:19:32.407Z,101361.06
2022-09-12T00:20:35.305Z,101360.44
2022-09-12T00:21:39.059Z,101366.63
2022-09-12T00:22:42.162Z,101365.81
2022-09-12T00:23:46.241Z,101364.97
2022-09-12T00:24:49.175Z,101361.44
2022-09-12T00:25:51.080Z,101365.19
2022-09-12T00:26:54.164Z,101363.50
2022-09-12T00:27:56.177Z,101360.00
2022-09-12T00:28:59.326Z,101360.22
2022-09-12T00:30:01.229Z,101362.91
2022-09-12T00:31:06.936Z,101358.75
2022-09-12T00:32:08.875Z,101362.25
2022-09-12T00:33:12.269Z,101357.91
2022-09-12T00:34:14.739Z,101367.59
2022-09-12T00:35:17.777Z,101359.16
2022-09-12T00:36:21.812Z,101366.16
2022-09-12T00:37:24.692Z,101356.66
2022-09-12T00:38:26.793Z,101362.03
2022-09-12T00:39:31.060Z,101357.66
2022-09-12T00:40:33.069Z,101354.38
2022-09-12T00:41:38.626Z,101361.38
2022-09-12T00:42:40.546Z,101366.09
2022-09-12T00:43:45.639Z,101359.13
2022-09-12T00:44:51.435Z,101348.59
2022-09-12T00:45:54.783Z,101357.63
2022-09-12T00:47:00.938Z,101356.84
2022-09-12T00:48:05.318Z,101356.84
2022-09-12T00:49:14.370Z,101351.63
2022-09-12T00:50:18.041Z,101356.19
2022-09-12T00:51:20.734Z,101357.19
2022-09-12T00:52:28.348Z,101350.00
2022-09-12T00:53:30.905Z,101349.34
2022-09-12T00:54:39.569Z,101354.91
2022-09-12T00:55:45.558Z,101358.63
2022-09-12T00:56:51.442Z,101353.28
2022-09-12T00:57:57.563Z,101352.44
2022-09-12T00:59:06.192Z,101349.97
2022-09-12T01:00:13.708Z,101347.47
2022-09-12T01:01:16.790Z,101346.00
2022-09-12T01:02:18.893Z,101342.97
2022-09-12T01:03:24.259Z,101346.66
2022-09-12T01:04:28.253Z,101343.97
2022-09-12T01:05:35.267Z,101338.59
2022-09-12T01:06:42.073Z,101332.41
2022-09-12T01:07:48.506Z,101336.13
2022-09-12T01:08:53.746Z,101344.16
2022-09-12T01:09:57.192Z,101347.88
2022-09-12T01:11:00.117Z,101348.69
2022-09-12T01:12:02.792Z,101336.31
2022-09-12T01:13:07.165Z,101355.09
2022-09-12T01:14:09.517Z,101337.38
2022-09-12T01:15:13.010Z,101332.97
2022-09-12T01:16:15.616Z,101337.50
2022-09-12T01:17:18.499Z,101331.34
2022-09-12T01:18:26.823Z,101335.03
2022-09-12T01:20:35.609Z,101327.19
2022-09-12T01:21:44.294Z,101328.22
2022-09-12T01:23:07.488Z,101334.41
2022-09-12T01:24:38.918Z,101327.38
2022-09-12T01:25:58.739Z,101331.72
2022-09-12T01:27:17.698Z,101334.59
2022-09-12T01:28:38.182Z,101324.06
2022-09-12T01:30:06.248Z,101329.63
2022-09-12T01:31:15.720Z,101334.19
2022-09-12T01:32:27.058Z,101326.31
2022-09-12T01:33:37.885Z,101326.50
2022-09-12T01:34:50.171Z,101327.53
2022-09-12T01:36:06.718Z,101332.06
2022-09-12T01:37:15.683Z,101340.28
2022-09-12T01:38:26.080Z,101334.94
2022-09-12T01:39:37.822Z,101328.94
2022-09-12T01:40:46.313Z,101326.28
2022-09-12T01:41:55.925Z,101321.94
2022-09-12T01:43:05.291Z,101323.78
2022-09-12T01:44:21.503Z,101318.19
2022-09-12T01:45:30.132Z,101323.34
2022-09-12T01:46:41.359Z,101332.03
2022-09-12T01:47:51.050Z,101319.66
2022-09-12T01:48:59.601Z,101326.03
2022-09-12T01:50:07.276Z,101318.00
2022-09-12T01:51:14.807Z,101320.06
2022-09-12T01:52:23.744Z,101318.38
2022-09-12T01:53:30.101Z,101317.38
2022-09-12T01:54:39.937Z,101313.88
2022-09-12T01:55:46.424Z,101321.25
2022-09-12T01:56:54.190Z,101311.41
2022-09-12T01:58:04.162Z,101316.94
2022-09-12T01:59:13.608Z,101312.78
2022-09-12T02:00:16.769Z,101318.16
2022-09-12T02:01:23.252Z,101316.50
2022-09-12T02:02:34.923Z,101313.00
2022-09-12T02:03:44.727Z,101312.16
2022-09-12T02:04:52.764Z,101311.34
2022-09-12T02:05:59.916Z,101303.50
2022-09-12T02:07:09.053Z,101312.56
2022-09-12T02:08:14.918Z,101309.03
2022-09-12T02:09:22.811Z,101307.41
2022-09-12T02:10:32.514Z,101305.75
2022-09-12T02:11:38.381Z,101300.59
2022-09-12T02:12:44.793Z,101301.41
2022-09-12T02:13:55.167Z,101302.44
2022-09-12T02:15:02.510Z,101313.34
2022-09-12T02:16:09.919Z,101298.09
2022-09-12T02:17:14.903Z,101299.97
2022-09-12T02:18:21.155Z,101295.59
2022-09-12T02:19:28.223Z,101297.47
2022-09-12T02:20:47.982Z,101300.34
2022-09-12T02:21:54.068Z,101288.81
2022-09-12T02:22:59.079Z,101293.31
2022-09-12T02:24:04.952Z,101282.81
2022-09-12T02:25:11.615Z,101287.13
2022-09-12T02:26:24.861Z,101282.81
2022-09-12T02:27:34.691Z,101289.00
2022-09-12T02:28:42.256Z,101285.50
2022-09-12T02:29:46.134Z,101294.34
2022-09-12T02:30:56.505Z,101291.69
2022-09-12T02:32:01.845Z,101287.13
2022-09-12T02:33:07.558Z,101284.66
2022-09-12T02:34:27.909Z,101288.16
2022-09-12T02:35:39.258Z,101289.00
2022-09-12T02:36:51.087Z,101292.06
2022-09-12T02:38:00.110Z,101282.38
2022-09-12T02:39:03.175Z,101287.31
2022-09-12T02:40:07.087Z,101288.38
2022-09-12T02:41:10.263Z,101291.88
2022-09-12T02:42:12.601Z,101288.38
2022-09-12T02:43:15.667Z,101288.16
2022-09-12T02:44:18.037Z,101292.69
2022-09-12T02:45:22.808Z,101297.22
2022-09-12T02:46:31.449Z,101289.00
2022-09-12T02:47:39.897Z,101290.84
2022-09-12T02:48:43.838Z,101283.84
2022-09-12T02:49:48.508Z,101287.31
2022-09-12T02:50:50.584Z,101292.06
2022-09-12T02:51:53.548Z,101284.03
2022-09-12T02:52:59.789Z,101280.53
2022-09-12T02:54:03.558Z,101282.38
2022-09-12T02:55:06.684Z,101279.88
2022-09-12T02:56:13.675Z,101281.72
2022-09-12T02:57:20.618Z,101288.97
2022-09-12T02:58:28.600Z,101283.81
2022-09-12T02:59:31.537Z,101278.44
2022-09-12T03:00:37.844Z,101279.66
2022-09-12T03:01:57.830Z,101279.66
2022-09-12T03:03:19.591Z,101278.81
2022-09-12T03:04:45.797Z,101288.50
2022-09-12T03:05:57.533Z,101293.03
2022-09-12T03:07:09.988Z,101282.31
2022-09-12T03:08:39.476Z,101284.56
2022-09-12T03:09:47.340Z,101284.16
2022-09-12T03:11:22.789Z,101278.19
2022-09-12T03:12:39.617Z,101287.22
2022-09-12T03:13:52.909Z,101294.44
2022-09-12T03:15:08.645Z,101292.78
2022-09-12T03:16:20.668Z,101292.97
2022-09-12T03:17:31.303Z,101294.63
2022-09-12T03:18:48.493Z,101288.47
2022-09-12T03:19:57.006Z,101280.63
2022-09-12T03:21:07.285Z,101298.53
2022-09-12T03:22:15.825Z,101273.56
2022-09-12T03:23:28.236Z,101288.22
2022-09-12T03:24:35.445Z,101284.72
2022-09-12T03:25:43.163Z,101284.91
2022-09-12T03:26:50.644Z,101284.91
2022-09-12T03:27:59.666Z,101288.56
2022-09-12T03:29:03.539Z,101283.63
2022-09-12T03:30:07.420Z,101286.28
2022-09-12T03:31:14.475Z,101291.66
2022-09-12T03:32:17.408Z,101289.16
2022-09-12T03:33:20.885Z,101287.53
2022-09-12T03:34:26.042Z,101281.53
2022-09-12T03:35:27.979Z,101285.84
2022-09-12T03:36:32.373Z,101288.06
2022-09-12T03:37:34.368Z,101284.41
2022-09-12T03:38:37.309Z,101288.91
2022-09-12T03:39:39.442Z,101285.59
2022-09-12T03:40:42.545Z,101284.78
2022-09-12T03:41:44.731Z,101285.00
2022-09-12T03:42:47.594Z,101278.34
2022-09-12T03:43:49.549Z,101294.84
2022-09-12T03:44:52.568Z,101291.34
2022-09-12T03:45:54.590Z,101294.84
2022-09-12T03:46:57.586Z,101296.06
2022-09-12T03:48:00.030Z,101300.59
2022-09-12T03:49:03.022Z,101289.06
2022-09-12T03:50:06.455Z,101282.88
2022-09-12T03:51:11.463Z,101291.09
2022-09-12T03:52:14.720Z,101294.81
2022-09-12T03:53:17.701Z,101281.63
2022-09-12T03:54:19.712Z,101295.81
2022-09-12T03:55:22.962Z,101301.53
2022-09-12T03:56:24.935Z,101287.53
2022-09-12T03:57:27.869Z,101282.81
2022-09-12T03:58:31.357Z,101281.97
2022-09-12T03:59:34.397Z,101283.84
2022-09-12T04:00:36.333Z,101290.84
2022-09-12T04:01:39.333Z,101286.53
2022-09-12T04:02:41.235Z,101291.88
2022-09-12T04:03:45.091Z,101283.84
2022-09-12T04:04:48.884Z,101284.03
2022-09-12T04:05:51.890Z,101284.03
2022-09-12T04:06:53.802Z,101285.88
2022-09-12T04:07:58.111Z,101274.53
2022-09-12T04:09:00.134Z,101280.72
2022-09-12T04:10:03.991Z,101289.59
2022-09-12T04:11:07.736Z,101279.88
2022-09-12T04:12:10.634Z,101283.41
2022-09-12T04:13:12.559Z,101283.59
2022-09-12T04:14:15.475Z,101280.28
2022-09-12T04:15:17.434Z,101273.91
2022-09-12T04:16:20.497Z,101280.91
2022-09-12T04:17:22.456Z,101281.91
2022-09-12T04:18:25.423Z,101281.91
2022-09-12T04:19:27.684Z,101282.13
2022-09-12T04:20:30.590Z,101275.97
2022-09-12T04:21:32.811Z,101281.31
2022-09-12T04:22:35.716Z,101273.28
2022-09-12T04:23:39.116Z,101275.97
2022-09-12T04:24:42.041Z,101270.78
2022-09-12T04:25:44.003Z,101270.78
2022-09-12T04:26:46.903Z,101270.97
2022-09-12T04:27:48.894Z,101266.44
2022-09-12T04:28:56.201Z,101267.28
2022-09-12T04:29:59.543Z,101266.66
2022-09-12T04:31:03.866Z,101267.28
2022-09-12T04:32:06.217Z,101268.09
2022-09-12T04:33:09.165Z,101261.75
2022-09-12T04:34:11.309Z,101263.38
2022-09-12T04:35:14.214Z,101269.56
2022-09-12T04:36:17.660Z,101264.22
2022-09-12T04:37:21.178Z,101261.56
2022-09-12T04:38:23.208Z,101265.88
2022-09-12T04:39:27.846Z,101276.56
2022-09-12T04:40:29.950Z,101264.88
2022-09-12T04:41:35.008Z,101273.69
2022-09-12T04:42:36.961Z,101263.84
2022-09-12T04:43:39.926Z,101264.69
2022-09-12T04:44:41.903Z,101263.84
2022-09-12T04:45:44.911Z,101265.69
2022-09-12T04:46:48.582Z,101271.66
2022-09-12T04:47:51.520Z,101272.50
2022-09-12T04:48:56.897Z,101267.34
2022-09-12T04:50:00.163Z,101264.47
2022-09-12T04:51:10.773Z,101279.69
2022-09-12T04:52:13.769Z,101277.00
2022-09-12T04:53:15.707Z,101275.38
2022-09-12T04:54:20.649Z,101269.19
2022-09-12T04:55:26.390Z,101274.53
2022-09-12T04:56:30.647Z,101266.50
2022-09-12T04:57:33.825Z,101273.69
2022-09-12T04:58:36.536Z,101272.91
2022-09-12T04:59:39.801Z,101267.53
2022-09-12T05:00:41.969Z,101273.69
2022-09-12T05:01:45.539Z,101275.56
2022-09-12T05:02:47.465Z,101274.53
2022-09-12T05:03:51.585Z,101268.34
2022-09-12T05:04:54.490Z,101268.34
2022-09-12T05:05:57.532Z,101274.53
2022-09-12T05:07:00.459Z,101269.56
2022-09-12T05:08:02.695Z,101264.69
2022-09-12T05:09:07.265Z,101277.84
2022-09-12T05:10:10.376Z,101271.66
2022-09-12T05:11:16.715Z,101274.16
2022-09-12T05:12:19.695Z,101267.16
2022-09-12T05:13:22.135Z,101264.28
2022-09-12T05:14:25.083Z,101264.28
2022-09-12T05:15:26.971Z,101261.16
2022-09-12T05:16:31.285Z,101273.78
2022-09-12T05:17:33.324Z,101268.44
2022-09-12T05:18:37.436Z,101270.47
2022-09-12T05:19:39.426Z,101263.50
2022-09-12T05:20:42.363Z,101264.72
2022-09-12T05:21:44.414Z,101270.97
2022-09-12T05:22:47.323Z,101267.25
2022-09-12T05:23:51.992Z,101275.09
2022-09-12T05:24:55.008Z,101269.75
2022-09-12T05:25:58.686Z,101265.88
2022-09-12T05:27:03.455Z,101271.03
2022-09-12T05:28:05.442Z,101269.00
2022-09-12T05:29:08.376Z,101268.78
2022-09-12T05:30:11.820Z,101272.09
2022-09-12T05:31:23.045Z,101268.41
2022-09-12T05:32:31.751Z,101283.22
2022-09-12T05:33:36.311Z,101272.34
2022-09-12T05:34:38.877Z,101286.34
2022-09-12T05:35:42.613Z,101295.00
2022-09-12T05:36:45.566Z,101268.06
2022-09-12T05:37:48.488Z,101277.75
2022-09-12T05:38:50.705Z,101276.53
2022-09-12T05:39:53.644Z,101270.19
2022-09-12T05:41:03.574Z,101263.78
2022-09-12T05:42:09.246Z,101271.63
2022-09-12T05:43:12.426Z,101268.75
2022-09-12T05:44:16.132Z,101275.78
2022-09-12T05:45:18.091Z,101270.22
2022-09-12T05:46:22.897Z,101281.53
2022-09-12T05:47:24.866Z,101277.84
2022-09-12T05:48:28.529Z,101280.34
2022-09-12T05:49:31.563Z,101277.47
2022-09-12T05:50:33.540Z,101281.97
2022-09-12T05:51:38.396Z,101284.09
2022-09-12T05:52:40.707Z,101283.25
2022-09-12T05:53:43.696Z,101279.19
2022-09-12T05:54:47.531Z,101274.44
2022-09-12T05:55:50.056Z,101275.06
2022-09-12T05:56:53.004Z,101270.34
2022-09-12T05:57:56.361Z,101269.94
2022-09-12T05:59:01.870Z,101272.44
2022-09-12T06:00:05.477Z,101273.06
2022-09-12T06:01:16.988Z,101279.69
2022-09-12T06:02:19.977Z,101281.13
2022-09-12T06:03:22.024Z,101276.41
2022-09-12T06:04:25.389Z,101277.84
2022-09-12T06:05:27.407Z,101275.63
2022-09-12T06:06:31.601Z,101283.44
2022-09-12T06:07:33.529Z,101278.53
2022-09-12T06:08:37.481Z,101282.69
2022-09-12T06:09:40.452Z,101285.78
2022-09-12T06:10:43.417Z,101282.75
2022-09-12T06:11:47.424Z,101279.66
2022-09-12T06:12:50.336Z,101283.63
2022-09-12T06:13:53.795Z,101285.88
2022-09-12T06:14:57.009Z,101283.63
2022-09-12T06:16:04.011Z,101292.13
2022-09-12T06:17:06.916Z,101283.66
2022-09-12T06:18:08.837Z,101283.66
2022-09-12T06:19:16.300Z,101288.84
2022-09-12T06:20:20.630Z,101287.44
2022-09-12T06:21:24.330Z,101287.66
2022-09-12T06:22:26.243Z,101291.59
2022-09-12T06:23:29.403Z,101296.38
2022-09-12T06:24:32.603Z,101291.22
2022-09-12T06:25:34.587Z,101287.09
2022-09-12T06:26:37.832Z,101290.84
2022-09-12T06:27:40.772Z,101290.44
2022-09-12T06:28:44.941Z,101298.69
2022-09-12T06:29:49.226Z,101290.66
2022-09-12T06:30:51.410Z,101308.00
2022-09-12T06:31:54.292Z,101297.50
2022-09-12T06:32:56.893Z,101287.81
2022-09-12T06:34:01.878Z,101293.41
2022-09-12T06:35:05.514Z,101288.25
2022-09-12T06:36:12.519Z,101291.94
2022-09-12T06:37:15.805Z,101290.31
2022-09-12T06:38:18.452Z,101283.31
2022-09-12T06:39:22.751Z,101288.06
2022-09-12T06:40:24.895Z,101281.84
2022-09-12T06:41:28.994Z,101282.88
2022-09-12T06:42:30.916Z,101282.13
2022-09-12T06:43:34.601Z,101281.28
2022-09-12T06:44:37.381Z,101287.69
2022-09-12T06:45:50.309Z,101276.09
2022-09-12T06:46:54.127Z,101276.09
2022-09-12T06:47:56.734Z,101274.44
2022-09-12T06:49:00.796Z,101274.63
2022-09-12T06:50:02.773Z,101270.06
2022-09-12T06:51:07.532Z,101263.84
2022-09-12T06:52:10.614Z,101265.69
2022-09-12T06:53:12.582Z,101277.25
2022-09-12T06:54:17.426Z,101272.06
2022-09-12T06:55:21.717Z,101276.38
2022-09-12T06:56:28.876Z,101282.16
2022-09-12T06:57:31.542Z,101270.34
2022-09-12T06:58:35.376Z,101270.31
2022-09-12T06:59:38.433Z,101277.53
2022-09-12T07:00:41.783Z,101278.75
2022-09-12T07:01:44.741Z,101278.72
2022-09-12T07:02:46.739Z,101273.72
2022-09-12T07:03:51.082Z,101275.59
2022-09-12T07:04:53.063Z,101271.41
2022-09-12T07:05:56.001Z,101274.09
2022-09-12T07:06:58.925Z,101276.16
2022-09-12T07:08:00.902Z,101274.66
2022-09-12T07:09:06.782Z,101279.41
2022-09-12T07:10:11.808Z,101268.59
2022-09-12T07:11:17.756Z,101273.09
2022-09-12T07:12:19.770Z,101277.03
2022-09-12T07:13:22.693Z,101279.66
2022-09-12T07:14:26.045Z,101277.94
2022-09-12T07:15:28.934Z,101281.88
2022-09-12T07:16:32.666Z,101278.72
2022-09-12T07:17:35.612Z,101282.44
2022-09-12T07:18:38.570Z,101276.38
2022-09-12T07:19:41.772Z,101277.38
2022-09-12T07:20:44.068Z,101278.38
2022-09-12T07:21:47.048Z,101277.72
2022-09-12T07:22:49.022Z,101274.34
2022-09-12T07:23:55.267Z,101270.16
2022-09-12T07:24:57.721Z,101276.56
2022-09-12T07:26:02.065Z,101264.28
2022-09-12T07:27:05.134Z,101268.97
2022-09-12T07:28:07.045Z,101271.66
2022-09-12T07:30:39.394Z,101262.00
2022-09-12T07:31:43.633Z,101259.91
2022-09-12T07:32:46.532Z,101259.03
2022-09-12T07:33:54.354Z,101260.81
2022-09-12T07:34:57.797Z,101260.97
2022-09-12T07:36:01.632Z,101263.00
2022-09-12T07:37:04.711Z,101262.34
2022-09-12T07:38:06.796Z,101262.50
2022-09-12T07:39:09.724Z,101269.88
2022-09-12T07:40:11.737Z,101269.19
2022-09-12T07:41:15.792Z,101259.38
2022-09-12T07:42:18.684Z,101264.94
2022-09-12T07:43:20.702Z,101264.25
2022-09-12T07:44:23.640Z,101263.34
2022-09-12T07:45:26.849Z,101264.53
2022-09-12T07:46:29.881Z,101260.34
2022-09-12T07:47:34.110Z,101263.97
2022-09-12T07:48:36.288Z,101260.59
2022-09-12T07:49:39.207Z,101264.47
2022-09-12T07:50:45.046Z,101262.97
2022-09-12T07:51:48.205Z,101259.59
2022-09-12T07:52:50.517Z,101259.72
2022-09-12T07:53:53.739Z,101262.81
2022-09-12T07:54:55.655Z,101263.78
2022-09-12T07:55:58.913Z,101264.75
2022-09-12T07:57:00.864Z,101262.38
2022-09-12T07:58:03.866Z,101265.22
2022-09-12T07:59:05.813Z,101267.25
2022-09-12T08:00:10.917Z,101266.53
2022-09-12T08:01:19.040Z,101270.19
2022-09-12T08:02:21.085Z,101276.53
2022-09-12T08:03:25.388Z,101265.03
2022-09-12T08:04:27.300Z,101268.91
2022-09-12T08:05:30.996Z,101269.03
2022-09-12T08:06:36.087Z,101274.56
2022-09-12T08:07:39.140Z,101273.88
2022-09-12T08:08:41.462Z,101274.22
2022-09-12T08:09:44.362Z,101274.34
2022-09-12T08:10:47.369Z,101278.22
2022-09-12T08:11:50.268Z,101277.50
2022-09-12T08:12:52.246Z,101275.50
2022-09-12T08:13:57.190Z,101285.03
2022-09-12T08:15:00.523Z,101274.94
2022-09-12T08:16:04.366Z,101280.00
2022-09-12T08:17:07.453Z,101282.84
2022-09-12T08:18:09.396Z,101269.91
2022-09-12T08:19:13.652Z,101278.69
2022-09-12T08:20:15.657Z,101276.91
2022-09-12T08:21:22.935Z,101279.97
2022-09-12T08:22:26.163Z,101283.03
2022-09-12T08:23:29.342Z,101277.47
2022-09-12T08:24:32.430Z,101262.41
2022-09-12T08:25:34.901Z,101274.63
2022-09-12T08:26:37.814Z,101281.78
2022-09-12T08:27:40.821Z,101280.84
2022-09-12T08:28:45.732Z,101277.66
2022-09-12T08:29:48.653Z,101276.13
2022-09-12T08:30:50.688Z,101274.81
2022-09-12T08:31:57.107Z,101278.44
2022-09-12T08:32:59.531Z,101279.84
2022-09-12T08:34:02.430Z,101279.38
2022-09-12T08:35:08.044Z,101273.47
2022-09-12T08:36:11.946Z,101286.53
2022-09-12T08:37:15.184Z,101276.03
2022-09-12T08:38:17.136Z,101273.41
2022-09-12T08:39:20.045Z,101275.03
2022-09-12T08:40:21.997Z,101272.94
2022-09-12T08:41:30.259Z,101266.69
2022-09-12T08:42:53.178Z,101256.09
2022-09-12T08:44:26.096Z,101265.75
2022-09-12T08:45:35.555Z,101266.88
2022-09-12T08:46:48.144Z,101261.34
2022-09-12T08:47:52.105Z,101269.31
2022-09-12T08:48:55.785Z,101260.69
2022-09-12T08:50:13.271Z,101260.28
2022-09-12T08:51:18.508Z,101262.00
2022-09-12T08:52:28.893Z,101259.16
2022-09-12T08:53:37.121Z,101248.63
2022-09-12T08:54:39.754Z,101254.69
2022-09-12T08:55:45.564Z,101256.09
2022-09-12T08:56:48.495Z,101251.34
2022-09-12T08:57:51.964Z,101258.72
2022-09-12T08:58:54.857Z,101253.63
2022-09-12T08:59:57.054Z,101258.56
2022-09-12T09:01:08.424Z,101261.25
2022-09-12T09:02:34.642Z,101256.16
2022-09-12T09:04:01.839Z,101250.50
2022-09-12T09:05:13.577Z,101257.06
2022-09-12T09:06:27.806Z,101249.53
2022-09-12T09:07:52.344Z,101251.97
2022-09-12T09:09:04.921Z,101251.50
2022-09-12T09:10:23.347Z,101251.25
2022-09-12T09:11:44.062Z,101249.13
2022-09-12T09:12:57.317Z,101247.78
2022-09-12T09:14:32.860Z,101244.56
2022-09-12T09:15:44.958Z,101244.63
2022-09-12T09:16:49.849Z,101244.13
2022-09-12T09:17:56.282Z,101247.16
2022-09-12T09:19:02.486Z,101252.91
2022-09-12T09:20:16.262Z,101246.75
2022-09-12T09:21:24.794Z,101240.81
2022-09-12T09:22:38.215Z,101249.03
2022-09-12T09:23:45.217Z,101260.75
2022-09-12T09:24:53.295Z,101243.72
2022-09-12T09:26:01.738Z,101249.22
2022-09-12T09:27:23.627Z,101235.91
2022-09-12T09:28:37.641Z,101245.78
2022-09-12T09:29:45.407Z,101241.50
2022-09-12T09:30:48.459Z,101248.03
2022-09-12T09:31:54.355Z,101241.03
2022-09-12T09:32:59.209Z,101242.16
2022-09-12T09:34:01.300Z,101252.53
2022-09-12T09:35:13.177Z,101238.47
2022-09-12T09:36:22.413Z,101242.31
2022-09-12T09:37:32.551Z,101239.91
2022-09-12T09:38:47.392Z,101241.88
2022-09-12T09:39:59.408Z,101235.91
2022-09-12T09:41:12.970Z,101235.97
2022-09-12T09:42:30.755Z,101233.81
2022-09-12T09:43:33.679Z,101228.38
2022-09-12T09:44:36.380Z,101231.09
2022-09-12T09:45:43.428Z,101232.16
2022-09-12T09:46:51.284Z,101237.34
2022-09-12T09:47:58.840Z,101234.63
2022-09-12T09:49:04.144Z,101225.94
2022-09-12T09:50:07.002Z,101230.53
2022-09-12T09:51:10.441Z,101232.69
2022-09-12T09:52:17.194Z,101237.28
2022-09-12T09:53:28.493Z,101229.13
2022-09-12T09:54:37.613Z,101229.97
2022-09-12T09:55:43.131Z,101234.31
2022-09-12T09:56:46.932Z,101234.88
2022-09-12T09:57:49.938Z,101239.00
2022-09-12T09:58:53.092Z,101226.47
2022-09-12T09:59:55.069Z,101237.06
2022-09-12T10:01:00.974Z,101229.75
2022-09-12T10:02:24.030Z,101228.69
2022-09-12T10:03:30.984Z,101236.31
2022-09-12T10:04:41.210Z,101239.34
2022-09-12T10:05:49.575Z,101227.13
2022-09-12T10:06:54.379Z,101230.16
2022-09-12T10:07:58.448Z,101226.91
2022-09-12T10:09:19.734Z,101223.19
2022-09-12T10:10:22.842Z,101225.13
2022-09-12T10:11:30.267Z,101225.97
2022-09-12T10:12:32.288Z,101235.81
2022-09-12T10:13:40.555Z,101221.69
2022-09-12T10:14:43.505Z,101221.72
2022-09-12T10:15:57.744Z,101222.84
2022-09-12T10:17:00.739Z,101218.56
2022-09-12T10:18:04.764Z,101224.56
2022-09-12T10:19:22.556Z,101227.84
2022-09-12T10:20:33.640Z,101223.78
2022-09-12T10:21:41.322Z,101222.44
2022-09-12T10:22:47.885Z,101223.81
2022-09-12T10:24:01.087Z,101227.38
2022-09-12T10:25:11.418Z,101223.91
2022-09-12T10:26:17.357Z,101233.97
2022-09-12T10:27:23.189Z,101233.44
2022-09-12T10:28:32.349Z,101226.69
2022-09-12T10:29:45.463Z,101228.03
2022-09-12T10:30:52.528Z,101227.50
2022-09-12T10:31:58.763Z,101232.19
2022-09-12T10:33:08.303Z,101230.00
2022-09-12T10:34:22.960Z,101227.56
2022-09-12T10:35:31.017Z,101228.13
2022-09-12T10:36:38.510Z,101225.97
2022-09-12T10:37:41.989Z,101230.59
2022-09-12T10:38:49.984Z,101223.81
2022-09-12T10:39:57.034Z,101224.91
2022-09-12T10:41:01.365Z,101215.41
2022-09-12T10:42:05.810Z,101220.59
2022-09-12T10:43:17.536Z,101217.34
2022-09-12T10:44:27.306Z,101222.25
2022-09-12T10:45:33.063Z,101217.91
2022-09-12T10:46:35.977Z,101199.38
2022-09-12T10:47:38.242Z,101215.25
2022-09-12T10:48:41.569Z,101215.78
2022-09-12T10:49:44.121Z,101215.78
2022-09-12T10:50:47.127Z,101216.06
2022-09-12T10:51:49.635Z,101222.00
2022-09-12T10:52:52.660Z,101222.81
2022-09-12T10:53:56.584Z,101210.31
2022-09-12T10:55:01.462Z,101213.03
2022-09-12T10:56:07.919Z,101205.66
2022-09-12T10:57:35.953Z,101208.16
2022-09-12T10:59:05.536Z,101206.47
2022-09-12T11:00:15.029Z,101205.91
2022-09-12T11:01:28.359Z,101195.31
2022-09-12T11:02:37.949Z,101198.28
2022-09-12T11:04:05.376Z,101194.50
2022-09-12T11:05:18.384Z,101198.28
2022-09-12T11:06:34.026Z,101197.22
2022-09-12T11:07:43.476Z,101193.41
2022-09-12T11:08:55.596Z,101196.13
2022-09-12T11:10:11.680Z,101189.06
2022-09-12T11:11:40.973Z,101199.13
2022-09-12T11:12:51.396Z,101200.75
2022-09-12T11:14:11.842Z,101200.22
2022-09-12T11:15:33.394Z,101198.31
2022-09-12T11:16:43.849Z,101188.56
2022-09-12T11:17:51.972Z,101197.81
2022-09-12T11:19:10.474Z,101194.59
2022-09-12T11:20:48.304Z,101188.31
2022-09-12T11:22:06.385Z,101186.16
2022-09-12T11:23:36.330Z,101187.78
2022-09-12T11:24:51.999Z,101190.22
2022-09-12T11:26:04.265Z,101190.22
2022-09-12T11:27:19.968Z,101192.97
2022-09-12T11:28:34.419Z,101182.06
2022-09-12T11:29:50.003Z,101182.88
2022-09-12T11:31:09.464Z,101180.16
2022-09-12T11:32:48.924Z,101183.44
2022-09-12T11:33:56.558Z,101184.25
2022-09-12T11:35:10.416Z,101174.47
2022-09-12T11:36:30.706Z,101189.44
2022-09-12T11:37:53.879Z,101172.56
2022-09-12T11:39:04.323Z,101181.81
2022-09-12T11:40:22.434Z,101173.91
2022-09-12T11:41:32.488Z,101177.47
2022-09-12T11:42:39.852Z,101179.34
2022-09-12T11:43:48.691Z,101175.81
2022-09-12T11:44:59.636Z,101169.84
2022-09-12T11:46:11.058Z,101164.38
2022-09-12T11:47:17.398Z,101168.19
2022-09-12T11:48:27.680Z,101166.84
2022-09-12T11:49:37.646Z,101170.13
2022-09-12T11:50:41.401Z,101170.66
2022-09-12T11:51:50.750Z,101166.84
2022-09-12T11:52:57.573Z,101163.03
2022-09-12T11:54:14.962Z,101161.13
2022-09-12T11:55:23.486Z,101166.03
2022-09-12T11:56:27.409Z,101168.19
2022-09-12T11:57:37.906Z,101170.13
2022-09-12T11:58:42.235Z,101166.31
2022-09-12T11:59:50.978Z,101166.84
2022-09-12T12:00:57.930Z,101166.03
2022-09-12T12:02:03.286Z,101169.03
2022-09-12T12:03:15.608Z,101172.31
2022-09-12T12:04:24.825Z,101171.22
2022-09-12T12:05:31.887Z,101162.50
2022-09-12T12:06:48.484Z,101163.88
2022-09-12T12:08:04.211Z,101157.88
2022-09-12T12:09:07.254Z,101159.78
2022-09-12T12:10:24.619Z,101165.50
2022-09-12T12:11:33.744Z,101154.03
2022-09-12T12:12:36.452Z,101150.81
2022-09-12T12:13:43.235Z,101153.81
2022-09-12T12:14:48.718Z,101158.69
2022-09-12T12:15:56.287Z,101155.47
2022-09-12T12:16:58.361Z,101159.00
2022-09-12T12:18:03.531Z,101166.91
2022-09-12T12:19:10.982Z,101157.63
2022-09-12T12:20:18.760Z,101162.00
2022-09-12T12:21:40.123Z,101160.91
2022-09-12T12:22:53.187Z,101159.00
2022-09-12T12:24:13.964Z,101162.53
2022-09-12T12:25:29.862Z,101165.81
2022-09-12T12:26:59.756Z,101155.72
2022-09-12T12:28:05.482Z,101160.34
2022-09-12T12:29:09.538Z,101164.19
2022-09-12T12:31:03.347Z,101147.81
2022-09-12T12:32:26.605Z,101150.53
2022-09-12T12:34:04.781Z,101155.72
2022-09-12T12:35:39.975Z,101154.88
2022-09-12T12:36:43.822Z,101157.06
2022-09-12T12:37:56.007Z,101152.16
2022-09-12T12:38:59.856Z,101146.69
2022-09-12T12:40:10.227Z,101144.25
2022-09-12T12:41:45.658Z,101153.81
2022-09-12T12:43:26.843Z,101145.59
2022-09-12T12:44:50.123Z,101145.59
2022-09-12T12:46:12.526Z,101146.66
2022-09-12T12:47:19.798Z,101139.84